GABS

Senou Airport

Senou, Mali
METAR GABS 170200Z 02005KT 8000 NSC 21/03 Q1015 NOSIG
Observed Flight Rules
Dec-17 @ 02:00 UTC (30 minutes ago) Marginal Visual Flight Rules
Wind Visibility Clouds
20° at 5 knots 7,998 meters
  • Clear skies
Temperatures Readings
Current 21°C / 70°F
Dewpoint 3°C / 37°F
Humidity 31%
Altimeter 29.97" Hg
Pressure 1015 hPa
Elevation 381
METAR GABS 170200Z 02005KT 8000 NSC 21/03 Q1015 NOSIG
Observed Flight Rules
Dec-17 @ 02:00 UTC
(30 minutes ago)
MVFR
Wind Visibility
20° at 5 knots 7,998 meters
Clouds
  • Clear skies
Temperature Dewpoint
21°C / 70°F 3°C / 37°F
Humidity Altimeter Pressure
31% 29.97" Hg 1015 hPa